This is the latest recevied weather packets stored in our database for station/object YU4PTT-8. If no packets are shown the sender has not sent any weather packets the latest 10 day(s).
| Time | Temp. | Humidity | Pressure | Rain* | Wind** | Luminosity | Snow |
|---|---|---|---|---|---|---|---|
| 1778120602 | 9.44° C | 88% | 1004.3 hPa | 0.51 mm | 0.89 m/s, 225° | - | - |
| 1778118202 | 11.11° C | 75% | 1004.2 hPa | 0 mm | 0.45 m/s, 158° | - | - |
| 1778115802 | 12.22° C | 68% | 1003.8 hPa | 0 mm | 0 m/s | - | - |
| 1778113432 | 12.22° C | 70% | 1003.8 hPa | 0 mm | 0 m/s | - | - |
| 1778111602 | 12.22° C | 70% | 1003.9 hPa | 0 mm | 0 m/s | - | - |
| 1778109202 | 12.78° C | 68% | 1003.6 hPa | 0 mm | 0.45 m/s, 68° | - | - |
| 1778106803 | 12.22° C | 68% | 1003.8 hPa | 0 mm | 1.79 m/s, 158° | - | - |
| 1778104402 | 13.33° C | 67% | 1002.9 hPa | 0 mm | 1.34 m/s, 90° | - | - |
| 1778102002 | 13.33° C | 66% | 1003 hPa | 0 mm | 0.89 m/s, 248° | - | - |
| 1778099602 | 14.44° C | 62% | 1003 hPa | 0 mm | 0.45 m/s, 90° | - | - |
| 1778097202 | 15° C | 57% | 1003.1 hPa | 0 mm | 2.68 m/s, 180° | - | - |
| 1778094802 | 15.56° C | 54% | 1003.3 hPa | 0 mm | 0 m/s | - | - |
| 1778092402 | 16.11° C | 52% | 1003 hPa | 0 mm | 0.45 m/s, 158° | - | - |
| 1778090032 | 16.67° C | 52% | 1002.7 hPa | 0 mm | 0 m/s | - | - |
| 1778087602 | 17.78° C | 54% | 1002.6 hPa | 0 mm | 0 m/s | - | - |
| 1778085202 | 18.89° C | 52% | 1002.7 hPa | 0 mm | 0 m/s | - | - |
| 1778082802 | 18.89° C | 52% | 1002.8 hPa | 0 mm | 0 m/s | - | - |
| 1778080432 | 18.89° C | 53% | 1003.1 hPa | 0 mm | 0 m/s | - | - |
| 1778078602 | 18.89° C | 50% | 1003.2 hPa | 0 mm | 0 m/s | - | - |
| 1778076232 | 19.44° C | 54% | 1003.2 hPa | 0 mm | 0 m/s | - | - |
| 1778073802 | 21.67° C | 42% | 1003.5 hPa | 0 mm | 0.45 m/s, 292° | - | - |
| 1778071402 | 21.11° C | 43% | 1003.8 hPa | 0 mm | 0 m/s | - | - |
| 1778069002 | 21.11° C | 43% | 1004 hPa | 0 mm | 1.79 m/s, 158° | - | - |
| 1778066602 | 19.44° C | 50% | 1004.2 hPa | 0 mm | 0.89 m/s, 45° | - | - |
| 1778064231 | 20° C | 49% | 1004.6 hPa | 0 mm | 0 m/s | - | - |
* Rain latest hour (hover to see other rain measurements)
** Current wind speed in m/s (hover to see current wind gust speed)